sensor_id;sensor_type;location;lat;lon;timestamp;P1;durP1;ratioP1;P2;durP2;ratioP2
73454;SDS011;61690;51.824;6.306;2023-01-26T00:01:25;15.83;;;9.13;;
73454;SDS011;61690;51.824;6.306;2023-01-26T00:03:54;15.98;;;10.10;;
73454;SDS011;61690;51.824;6.306;2023-01-26T00:06:21;14.80;;;9.07;;
73454;SDS011;61690;51.824;6.306;2023-01-26T00:08:48;14.88;;;8.85;;
73454;SDS011;61690;51.824;6.306;2023-01-26T00:11:18;15.27;;;9.53;;
73454;SDS011;61690;51.824;6.306;2023-01-26T00:13:48;16.10;;;9.90;;
73454;SDS011;61690;51.824;6.306;2023-01-26T00:16:15;15.35;;;8.80;;
73454;SDS011;61690;51.824;6.306;2023-01-26T00:18:40;16.43;;;9.43;;
73454;SDS011;61690;51.824;6.306;2023-01-26T00:21:07;16.42;;;9.63;;
73454;SDS011;61690;51.824;6.306;2023-01-26T00:23:36;15.93;;;9.73;;
73454;SDS011;61690;51.824;6.306;2023-01-26T00:26:02;15.90;;;9.23;;
73454;SDS011;61690;51.824;6.306;2023-01-26T00:28:30;15.18;;;9.70;;
73454;SDS011;61690;51.824;6.306;2023-01-26T00:31:05;15.07;;;9.07;;
73454;SDS011;61690;51.824;6.306;2023-01-26T00:33:32;16.67;;;9.27;;
73454;SDS011;61690;51.824;6.306;2023-01-26T00:35:57;14.97;;;9.00;;
73454;SDS011;61690;51.824;6.306;2023-01-26T00:38:23;13.80;;;8.83;;
73454;SDS011;61690;51.824;6.306;2023-01-26T00:40:48;14.60;;;9.02;;
73454;SDS011;61690;51.824;6.306;2023-01-26T00:43:13;20.03;;;10.10;;
73454;SDS011;61690;51.824;6.306;2023-01-26T00:45:39;16.90;;;8.97;;
73454;SDS011;61690;51.824;6.306;2023-01-26T00:48:04;14.60;;;8.90;;
73454;SDS011;61690;51.824;6.306;2023-01-26T00:50:30;14.82;;;9.13;;
73454;SDS011;61690;51.824;6.306;2023-01-26T00:52:55;14.70;;;8.90;;
73454;SDS011;61690;51.824;6.306;2023-01-26T00:55:21;14.57;;;8.63;;
73454;SDS011;61690;51.824;6.306;2023-01-26T00:57:47;15.90;;;9.13;;
73454;SDS011;61690;51.824;6.306;2023-01-26T01:00:13;15.10;;;9.03;;
73454;SDS011;61690;51.824;6.306;2023-01-26T01:02:41;15.80;;;9.75;;
73454;SDS011;61690;51.824;6.306;2023-01-26T01:05:07;13.90;;;8.90;;
73454;SDS011;61690;51.824;6.306;2023-01-26T01:07:33;15.48;;;8.77;;
73454;SDS011;61690;51.824;6.306;2023-01-26T01:09:58;14.40;;;9.13;;
73454;SDS011;61690;51.824;6.306;2023-01-26T01:12:24;14.45;;;8.88;;
73454;SDS011;61690;51.824;6.306;2023-01-26T01:14:50;15.00;;;8.93;;
73454;SDS011;61690;51.824;6.306;2023-01-26T01:17:15;14.73;;;9.02;;
73454;SDS011;61690;51.824;6.306;2023-01-26T01:19:41;14.90;;;8.90;;
73454;SDS011;61690;51.824;6.306;2023-01-26T01:22:06;15.67;;;9.17;;
73454;SDS011;61690;51.824;6.306;2023-01-26T01:24:31;15.20;;;8.67;;
73454;SDS011;61690;51.824;6.306;2023-01-26T01:26:59;16.25;;;8.95;;
73454;SDS011;61690;51.824;6.306;2023-01-26T01:29:24;14.85;;;9.00;;
73454;SDS011;61690;51.824;6.306;2023-01-26T01:31:50;15.10;;;8.50;;
73454;SDS011;61690;51.824;6.306;2023-01-26T01:34:15;14.13;;;8.63;;
73454;SDS011;61690;51.824;6.306;2023-01-26T01:36:40;14.37;;;8.30;;
73454;SDS011;61690;51.824;6.306;2023-01-26T01:39:06;15.40;;;8.90;;
73454;SDS011;61690;51.824;6.306;2023-01-26T01:41:31;14.37;;;9.20;;
73454;SDS011;61690;51.824;6.306;2023-01-26T01:44:13;13.80;;;8.00;;
73454;SDS011;61690;51.824;6.306;2023-01-26T01:46:44;14.23;;;8.30;;
73454;SDS011;61690;51.824;6.306;2023-01-26T01:49:31;14.75;;;8.40;;
73454;SDS011;61690;51.824;6.306;2023-01-26T01:52:06;14.98;;;8.90;;
73454;SDS011;61690;51.824;6.306;2023-01-26T01:54:38;14.77;;;8.75;;
73454;SDS011;61690;51.824;6.306;2023-01-26T01:57:11;13.83;;;8.20;;
73454;SDS011;61690;51.824;6.306;2023-01-26T01:59:50;13.70;;;8.27;;
73454;SDS011;61690;51.824;6.306;2023-01-26T02:02:24;13.82;;;8.35;;
73454;SDS011;61690;51.824;6.306;2023-01-26T02:04:49;13.00;;;7.97;;
73454;SDS011;61690;51.824;6.306;2023-01-26T02:07:15;13.98;;;8.60;;
73454;SDS011;61690;51.824;6.306;2023-01-26T02:09:41;13.80;;;8.30;;
73454;SDS011;61690;51.824;6.306;2023-01-26T02:12:31;15.32;;;8.70;;
73454;SDS011;61690;51.824;6.306;2023-01-26T02:14:57;14.27;;;8.43;;
73454;SDS011;61690;51.824;6.306;2023-01-26T02:17:25;14.18;;;8.10;;
73454;SDS011;61690;51.824;6.306;2023-01-26T02:19:55;14.53;;;8.73;;
73454;SDS011;61690;51.824;6.306;2023-01-26T02:22:35;13.68;;;7.75;;
73454;SDS011;61690;51.824;6.306;2023-01-26T02:25:26;14.03;;;8.47;;
73454;SDS011;61690;51.824;6.306;2023-01-26T02:28:04;13.48;;;8.05;;
73454;SDS011;61690;51.824;6.306;2023-01-26T02:30:30;13.90;;;8.52;;
73454;SDS011;61690;51.824;6.306;2023-01-26T02:32:56;13.38;;;7.72;;
73454;SDS011;61690;51.824;6.306;2023-01-26T02:35:21;13.53;;;8.17;;
73454;SDS011;61690;51.824;6.306;2023-01-26T02:37:47;14.40;;;8.60;;
73454;SDS011;61690;51.824;6.306;2023-01-26T02:40:15;13.23;;;7.93;;
73454;SDS011;61690;51.824;6.306;2023-01-26T02:43:00;12.70;;;8.00;;
73454;SDS011;61690;51.824;6.306;2023-01-26T02:45:26;13.88;;;8.05;;
73454;SDS011;61690;51.824;6.306;2023-01-26T02:47:53;13.70;;;8.10;;
73454;SDS011;61690;51.824;6.306;2023-01-26T02:50:19;15.45;;;8.70;;
73454;SDS011;61690;51.824;6.306;2023-01-26T02:52:44;13.93;;;7.83;;
73454;SDS011;61690;51.824;6.306;2023-01-26T02:55:09;12.87;;;7.73;;
73454;SDS011;61690;51.824;6.306;2023-01-26T02:57:47;13.38;;;7.82;;
73454;SDS011;61690;51.824;6.306;2023-01-26T03:02:44;13.85;;;8.35;;
73454;SDS011;61690;51.824;6.306;2023-01-26T03:05:11;12.82;;;7.65;;
73454;SDS011;61690;51.824;6.306;2023-01-26T03:07:37;13.53;;;8.10;;
73454;SDS011;61690;51.824;6.306;2023-01-26T03:10:02;13.67;;;8.30;;
73454;SDS011;61690;51.824;6.306;2023-01-26T03:12:29;13.35;;;7.90;;
73454;SDS011;61690;51.824;6.306;2023-01-26T03:14:54;12.70;;;7.50;;
73454;SDS011;61690;51.824;6.306;2023-01-26T03:17:38;13.07;;;7.70;;
73454;SDS011;61690;51.824;6.306;2023-01-26T03:20:03;13.17;;;8.10;;
73454;SDS011;61690;51.824;6.306;2023-01-26T03:22:49;12.65;;;7.43;;
73454;SDS011;61690;51.824;6.306;2023-01-26T03:25:32;12.88;;;7.93;;
73454;SDS011;61690;51.824;6.306;2023-01-26T03:28:16;12.60;;;7.60;;
73454;SDS011;61690;51.824;6.306;2023-01-26T03:30:49;12.65;;;7.70;;
73454;SDS011;61690;51.824;6.306;2023-01-26T03:33:16;13.38;;;8.13;;
73454;SDS011;61690;51.824;6.306;2023-01-26T03:35:42;13.13;;;8.00;;
73454;SDS011;61690;51.824;6.306;2023-01-26T03:38:08;13.13;;;8.10;;
73454;SDS011;61690;51.824;6.306;2023-01-26T03:40:33;12.77;;;7.83;;
73454;SDS011;61690;51.824;6.306;2023-01-26T03:43:17;13.20;;;8.00;;
73454;SDS011;61690;51.824;6.306;2023-01-26T03:46:04;12.25;;;7.20;;
73454;SDS011;61690;51.824;6.306;2023-01-26T03:48:50;12.80;;;7.90;;
73454;SDS011;61690;51.824;6.306;2023-01-26T03:51:33;13.75;;;8.20;;
73454;SDS011;61690;51.824;6.306;2023-01-26T03:54:17;12.60;;;7.15;;
73454;SDS011;61690;51.824;6.306;2023-01-26T03:57:01;13.20;;;7.93;;
73454;SDS011;61690;51.824;6.306;2023-01-26T03:59:27;14.67;;;8.17;;
73454;SDS011;61690;51.824;6.306;2023-01-26T04:02:05;12.70;;;7.97;;
73454;SDS011;61690;51.824;6.306;2023-01-26T04:04:50;12.00;;;7.38;;
73454;SDS011;61690;51.824;6.306;2023-01-26T04:07:35;13.05;;;7.78;;
73454;SDS011;61690;51.824;6.306;2023-01-26T04:10:19;13.48;;;8.07;;
73454;SDS011;61690;51.824;6.306;2023-01-26T04:12:45;12.50;;;7.50;;
73454;SDS011;61690;51.824;6.306;2023-01-26T04:15:28;12.75;;;7.70;;
73454;SDS011;61690;51.824;6.306;2023-01-26T04:18:12;12.65;;;7.93;;
73454;SDS011;61690;51.824;6.306;2023-01-26T04:20:57;12.40;;;7.50;;
73454;SDS011;61690;51.824;6.306;2023-01-26T04:23:40;12.27;;;7.53;;
73454;SDS011;61690;51.824;6.306;2023-01-26T04:26:05;13.17;;;8.00;;
73454;SDS011;61690;51.824;6.306;2023-01-26T04:28:31;12.60;;;7.80;;
73454;SDS011;61690;51.824;6.306;2023-01-26T04:30:56;12.20;;;7.37;;
73454;SDS011;61690;51.824;6.306;2023-01-26T04:33:21;12.20;;;7.77;;
73454;SDS011;61690;51.824;6.306;2023-01-26T04:35:46;13.43;;;7.87;;
73454;SDS011;61690;51.824;6.306;2023-01-26T04:38:12;12.97;;;7.90;;
73454;SDS011;61690;51.824;6.306;2023-01-26T04:40:37;12.37;;;7.77;;
73454;SDS011;61690;51.824;6.306;2023-01-26T04:43:02;13.00;;;8.20;;
73454;SDS011;61690;51.824;6.306;2023-01-26T04:45:28;11.35;;;6.72;;
73454;SDS011;61690;51.824;6.306;2023-01-26T04:47:53;13.27;;;7.97;;
73454;SDS011;61690;51.824;6.306;2023-01-26T04:50:18;12.83;;;7.83;;
73454;SDS011;61690;51.824;6.306;2023-01-26T04:52:44;12.73;;;7.87;;
73454;SDS011;61690;51.824;6.306;2023-01-26T04:55:09;12.17;;;7.50;;
73454;SDS011;61690;51.824;6.306;2023-01-26T04:57:34;12.00;;;7.37;;
73454;SDS011;61690;51.824;6.306;2023-01-26T05:00:00;11.30;;;7.10;;
73454;SDS011;61690;51.824;6.306;2023-01-26T05:02:25;12.63;;;7.60;;
73454;SDS011;61690;51.824;6.306;2023-01-26T05:04:50;12.23;;;7.57;;
73454;SDS011;61690;51.824;6.306;2023-01-26T05:07:16;11.50;;;7.40;;
73454;SDS011;61690;51.824;6.306;2023-01-26T05:09:41;12.00;;;7.47;;
73454;SDS011;61690;51.824;6.306;2023-01-26T05:12:06;11.93;;;7.50;;
73454;SDS011;61690;51.824;6.306;2023-01-26T05:14:50;12.35;;;7.57;;
73454;SDS011;61690;51.824;6.306;2023-01-26T05:17:15;12.10;;;7.67;;
73454;SDS011;61690;51.824;6.306;2023-01-26T05:19:40;10.93;;;6.73;;
73454;SDS011;61690;51.824;6.306;2023-01-26T05:22:06;11.47;;;7.50;;
73454;SDS011;61690;51.824;6.306;2023-01-26T05:24:31;12.33;;;7.37;;
73454;SDS011;61690;51.824;6.306;2023-01-26T05:26:56;11.63;;;7.40;;
73454;SDS011;61690;51.824;6.306;2023-01-26T05:29:41;12.27;;;7.38;;
73454;SDS011;61690;51.824;6.306;2023-01-26T05:32:07;11.80;;;7.10;;
73454;SDS011;61690;51.824;6.306;2023-01-26T05:34:32;11.67;;;7.43;;
73454;SDS011;61690;51.824;6.306;2023-01-26T05:36:57;11.95;;;7.13;;
73454;SDS011;61690;51.824;6.306;2023-01-26T05:39:23;11.20;;;7.00;;
73454;SDS011;61690;51.824;6.306;2023-01-26T05:41:48;11.00;;;6.63;;
73454;SDS011;61690;51.824;6.306;2023-01-26T05:44:13;11.70;;;6.97;;
73454;SDS011;61690;51.824;6.306;2023-01-26T05:46:41;11.70;;;7.35;;
73454;SDS011;61690;51.824;6.306;2023-01-26T05:49:07;11.53;;;7.33;;
73454;SDS011;61690;51.824;6.306;2023-01-26T05:51:32;11.37;;;7.27;;
73454;SDS011;61690;51.824;6.306;2023-01-26T05:53:57;11.13;;;7.00;;
73454;SDS011;61690;51.824;6.306;2023-01-26T05:56:22;11.40;;;6.97;;
73454;SDS011;61690;51.824;6.306;2023-01-26T05:58:48;11.30;;;6.70;;
73454;SDS011;61690;51.824;6.306;2023-01-26T06:01:13;11.03;;;6.80;;
73454;SDS011;61690;51.824;6.306;2023-01-26T06:03:38;10.97;;;6.83;;
73454;SDS011;61690;51.824;6.306;2023-01-26T06:06:04;12.07;;;7.00;;
73454;SDS011;61690;51.824;6.306;2023-01-26T06:08:29;11.43;;;7.10;;
73454;SDS011;61690;51.824;6.306;2023-01-26T06:10:58;15.37;;;8.17;;
73454;SDS011;61690;51.824;6.306;2023-01-26T06:13:25;10.82;;;6.80;;
73454;SDS011;61690;51.824;6.306;2023-01-26T06:15:50;11.13;;;6.90;;
73454;SDS011;61690;51.824;6.306;2023-01-26T06:18:15;11.03;;;6.90;;
73454;SDS011;61690;51.824;6.306;2023-01-26T06:20:41;11.07;;;7.07;;
73454;SDS011;61690;51.824;6.306;2023-01-26T06:23:06;10.10;;;6.17;;
73454;SDS011;61690;51.824;6.306;2023-01-26T06:25:35;10.63;;;6.55;;
73454;SDS011;61690;51.824;6.306;2023-01-26T06:28:03;10.30;;;6.38;;
73454;SDS011;61690;51.824;6.306;2023-01-26T06:30:29;10.97;;;6.47;;
73454;SDS011;61690;51.824;6.306;2023-01-26T06:32:54;10.30;;;6.67;;
73454;SDS011;61690;51.824;6.306;2023-01-26T06:35:19;10.80;;;6.40;;
73454;SDS011;61690;51.824;6.306;2023-01-26T06:37:46;10.47;;;6.27;;
73454;SDS011;61690;51.824;6.306;2023-01-26T06:40:12;10.27;;;6.63;;
73454;SDS011;61690;51.824;6.306;2023-01-26T06:42:38;10.33;;;6.33;;
73454;SDS011;61690;51.824;6.306;2023-01-26T06:45:03;10.85;;;6.28;;
73454;SDS011;61690;51.824;6.306;2023-01-26T06:47:29;10.80;;;6.90;;
73454;SDS011;61690;51.824;6.306;2023-01-26T06:49:54;10.13;;;6.17;;
73454;SDS011;61690;51.824;6.306;2023-01-26T06:52:29;13.47;;;6.23;;
73454;SDS011;61690;51.824;6.306;2023-01-26T06:54:57;9.25;;;5.53;;
73454;SDS011;61690;51.824;6.306;2023-01-26T06:57:24;8.52;;;5.20;;
73454;SDS011;61690;51.824;6.306;2023-01-26T06:59:50;12.53;;;5.40;;
73454;SDS011;61690;51.824;6.306;2023-01-26T07:02:16;8.57;;;5.30;;
73454;SDS011;61690;51.824;6.306;2023-01-26T07:04:43;10.13;;;5.40;;
73454;SDS011;61690;51.824;6.306;2023-01-26T07:07:09;8.77;;;4.93;;
73454;SDS011;61690;51.824;6.306;2023-01-26T07:09:34;9.57;;;5.47;;
73454;SDS011;61690;51.824;6.306;2023-01-26T07:11:59;9.33;;;4.90;;
73454;SDS011;61690;51.824;6.306;2023-01-26T07:14:25;9.20;;;5.23;;
73454;SDS011;61690;51.824;6.306;2023-01-26T07:16:50;8.90;;;5.20;;
73454;SDS011;61690;51.824;6.306;2023-01-26T07:19:15;8.93;;;5.03;;
73454;SDS011;61690;51.824;6.306;2023-01-26T07:21:41;9.53;;;5.60;;
73454;SDS011;61690;51.824;6.306;2023-01-26T07:24:07;8.80;;;5.23;;
73454;SDS011;61690;51.824;6.306;2023-01-26T07:26:33;8.68;;;4.88;;
73454;SDS011;61690;51.824;6.306;2023-01-26T07:28:58;9.70;;;5.30;;
73454;SDS011;61690;51.824;6.306;2023-01-26T07:31:24;8.57;;;5.10;;
73454;SDS011;61690;51.824;6.306;2023-01-26T07:33:49;9.03;;;4.90;;
73454;SDS011;61690;51.824;6.306;2023-01-26T07:36:14;9.10;;;5.00;;
73454;SDS011;61690;51.824;6.306;2023-01-26T07:38:40;9.10;;;4.80;;
73454;SDS011;61690;51.824;6.306;2023-01-26T07:41:06;9.40;;;4.90;;
73454;SDS011;61690;51.824;6.306;2023-01-26T07:43:34;8.75;;;4.50;;
73454;SDS011;61690;51.824;6.306;2023-01-26T07:46:00;7.72;;;4.65;;
73454;SDS011;61690;51.824;6.306;2023-01-26T07:48:26;9.10;;;4.83;;
73454;SDS011;61690;51.824;6.306;2023-01-26T07:50:53;8.63;;;4.32;;
73454;SDS011;61690;51.824;6.306;2023-01-26T07:53:21;9.45;;;4.50;;
73454;SDS011;61690;51.824;6.306;2023-01-26T07:55:47;9.30;;;4.70;;
73454;SDS011;61690;51.824;6.306;2023-01-26T07:58:13;8.00;;;4.72;;
73454;SDS011;61690;51.824;6.306;2023-01-26T08:00:39;8.03;;;4.43;;
73454;SDS011;61690;51.824;6.306;2023-01-26T08:03:04;8.40;;;4.30;;
73454;SDS011;61690;51.824;6.306;2023-01-26T08:05:30;7.82;;;4.43;;
73454;SDS011;61690;51.824;6.306;2023-01-26T08:07:57;8.23;;;4.57;;
73454;SDS011;61690;51.824;6.306;2023-01-26T08:10:23;9.00;;;4.30;;
73454;SDS011;61690;51.824;6.306;2023-01-26T08:12:48;8.32;;;4.75;;
73454;SDS011;61690;51.824;6.306;2023-01-26T08:15:14;11.53;;;4.40;;
73454;SDS011;61690;51.824;6.306;2023-01-26T08:17:39;7.30;;;4.20;;
73454;SDS011;61690;51.824;6.306;2023-01-26T08:20:04;7.30;;;4.47;;
73454;SDS011;61690;51.824;6.306;2023-01-26T08:22:30;7.23;;;4.20;;
73454;SDS011;61690;51.824;6.306;2023-01-26T08:24:55;7.70;;;4.37;;
73454;SDS011;61690;51.824;6.306;2023-01-26T08:27:21;7.00;;;4.40;;
73454;SDS011;61690;51.824;6.306;2023-01-26T08:29:47;8.00;;;4.50;;
73454;SDS011;61690;51.824;6.306;2023-01-26T08:32:12;7.22;;;3.85;;
73454;SDS011;61690;51.824;6.306;2023-01-26T08:34:37;7.30;;;4.03;;
73454;SDS011;61690;51.824;6.306;2023-01-26T08:37:03;7.43;;;4.17;;
73454;SDS011;61690;51.824;6.306;2023-01-26T08:39:28;7.20;;;3.77;;
73454;SDS011;61690;51.824;6.306;2023-01-26T08:41:53;7.07;;;4.00;;
73454;SDS011;61690;51.824;6.306;2023-01-26T08:44:19;7.90;;;4.40;;
73454;SDS011;61690;51.824;6.306;2023-01-26T08:46:44;7.50;;;4.50;;
73454;SDS011;61690;51.824;6.306;2023-01-26T08:49:10;6.77;;;4.07;;
73454;SDS011;61690;51.824;6.306;2023-01-26T08:51:35;6.60;;;3.90;;
73454;SDS011;61690;51.824;6.306;2023-01-26T08:54:01;7.03;;;4.18;;
73454;SDS011;61690;51.824;6.306;2023-01-26T08:56:29;8.25;;;4.22;;
73454;SDS011;61690;51.824;6.306;2023-01-26T08:58:54;7.40;;;4.00;;
73454;SDS011;61690;51.824;6.306;2023-01-26T09:01:19;7.20;;;4.17;;
73454;SDS011;61690;51.824;6.306;2023-01-26T09:03:44;7.77;;;4.00;;
73454;SDS011;61690;51.824;6.306;2023-01-26T09:06:11;7.23;;;4.20;;
73454;SDS011;61690;51.824;6.306;2023-01-26T09:08:38;6.88;;;4.00;;
73454;SDS011;61690;51.824;6.306;2023-01-26T09:11:04;7.33;;;3.80;;
73454;SDS011;61690;51.824;6.306;2023-01-26T09:13:31;7.43;;;3.67;;
73454;SDS011;61690;51.824;6.306;2023-01-26T09:15:56;6.67;;;3.63;;
73454;SDS011;61690;51.824;6.306;2023-01-26T09:18:21;7.28;;;4.03;;
73454;SDS011;61690;51.824;6.306;2023-01-26T09:20:47;7.07;;;3.97;;
73454;SDS011;61690;51.824;6.306;2023-01-26T09:23:15;7.10;;;3.80;;
73454;SDS011;61690;51.824;6.306;2023-01-26T09:25:42;6.93;;;3.75;;
73454;SDS011;61690;51.824;6.306;2023-01-26T09:28:07;7.00;;;3.83;;
73454;SDS011;61690;51.824;6.306;2023-01-26T09:30:33;7.40;;;3.60;;
73454;SDS011;61690;51.824;6.306;2023-01-26T09:32:59;6.57;;;3.90;;
73454;SDS011;61690;51.824;6.306;2023-01-26T09:35:32;6.30;;;3.72;;
73454;SDS011;61690;51.824;6.306;2023-01-26T09:37:57;6.77;;;3.83;;
73454;SDS011;61690;51.824;6.306;2023-01-26T09:43:15;6.90;;;3.75;;
73454;SDS011;61690;51.824;6.306;2023-01-26T09:48:36;8.25;;;3.83;;
73454;SDS011;61690;51.824;6.306;2023-01-26T09:51:36;7.22;;;3.90;;
73454;SDS011;61690;51.824;6.306;2023-01-26T09:57:13;7.10;;;3.50;;
73454;SDS011;61690;51.824;6.306;2023-01-26T09:59:49;6.83;;;3.50;;
73454;SDS011;61690;51.824;6.306;2023-01-26T10:02:19;6.60;;;3.63;;
73454;SDS011;61690;51.824;6.306;2023-01-26T10:04:56;7.00;;;3.53;;
73454;SDS011;61690;51.824;6.306;2023-01-26T10:07:25;6.55;;;3.70;;
73454;SDS011;61690;51.824;6.306;2023-01-26T10:09:50;7.47;;;3.40;;
73454;SDS011;61690;51.824;6.306;2023-01-26T10:12:18;6.60;;;3.50;;
73454;SDS011;61690;51.824;6.306;2023-01-26T10:15:14;6.60;;;3.90;;
73454;SDS011;61690;51.824;6.306;2023-01-26T10:17:55;6.80;;;3.80;;
73454;SDS011;61690;51.824;6.306;2023-01-26T10:20:31;6.68;;;3.83;;
73454;SDS011;61690;51.824;6.306;2023-01-26T10:23:08;7.00;;;3.83;;
73454;SDS011;61690;51.824;6.306;2023-01-26T10:25:40;7.20;;;3.60;;
73454;SDS011;61690;51.824;6.306;2023-01-26T10:30:39;7.57;;;3.90;;
73454;SDS011;61690;51.824;6.306;2023-01-26T10:33:13;6.72;;;3.70;;
73454;SDS011;61690;51.824;6.306;2023-01-26T10:35:42;6.63;;;3.30;;
73454;SDS011;61690;51.824;6.306;2023-01-26T10:38:26;6.33;;;3.60;;
73454;SDS011;61690;51.824;6.306;2023-01-26T10:41:03;6.97;;;3.40;;
73454;SDS011;61690;51.824;6.306;2023-01-26T10:43:30;6.97;;;3.58;;
73454;SDS011;61690;51.824;6.306;2023-01-26T10:45:59;6.82;;;3.60;;
73454;SDS011;61690;51.824;6.306;2023-01-26T10:48:27;6.33;;;3.30;;
73454;SDS011;61690;51.824;6.306;2023-01-26T10:50:53;6.70;;;3.72;;
73454;SDS011;61690;51.824;6.306;2023-01-26T10:53:23;6.47;;;3.60;;
73454;SDS011;61690;51.824;6.306;2023-01-26T10:59:07;6.07;;;3.30;;
73454;SDS011;61690;51.824;6.306;2023-01-26T11:01:16;6.82;;;3.70;;
73454;SDS011;61690;51.824;6.306;2023-01-26T11:04:00;6.60;;;3.30;;
73454;SDS011;61690;51.824;6.306;2023-01-26T11:06:28;6.22;;;3.40;;
73454;SDS011;61690;51.824;6.306;2023-01-26T11:09:06;6.50;;;3.70;;
73454;SDS011;61690;51.824;6.306;2023-01-26T11:11:53;5.70;;;2.92;;
73454;SDS011;61690;51.824;6.306;2023-01-26T11:14:20;6.32;;;3.10;;
73454;SDS011;61690;51.824;6.306;2023-01-26T11:16:49;6.33;;;3.40;;
73454;SDS011;61690;51.824;6.306;2023-01-26T11:19:39;6.30;;;3.55;;
73454;SDS011;61690;51.824;6.306;2023-01-26T11:22:12;6.03;;;3.28;;
73454;SDS011;61690;51.824;6.306;2023-01-26T11:24:50;6.88;;;3.55;;
73454;SDS011;61690;51.824;6.306;2023-01-26T11:27:51;6.40;;;3.30;;
73454;SDS011;61690;51.824;6.306;2023-01-26T11:33:29;6.28;;;3.25;;
73454;SDS011;61690;51.824;6.306;2023-01-26T11:42:28;6.50;;;3.53;;
73454;SDS011;61690;51.824;6.306;2023-01-26T11:47:33;6.88;;;3.20;;
73454;SDS011;61690;51.824;6.306;2023-01-26T11:50:45;6.25;;;3.20;;
73454;SDS011;61690;51.824;6.306;2023-01-26T11:53:35;6.40;;;3.50;;
73454;SDS011;61690;51.824;6.306;2023-01-26T11:58:44;6.30;;;3.45;;
73454;SDS011;61690;51.824;6.306;2023-01-26T12:01:17;6.60;;;3.75;;
73454;SDS011;61690;51.824;6.306;2023-01-26T12:03:53;6.38;;;3.50;;
73454;SDS011;61690;51.824;6.306;2023-01-26T12:09:19;6.07;;;3.00;;
73454;SDS011;61690;51.824;6.306;2023-01-26T12:15:11;6.30;;;3.20;;
73454;SDS011;61690;51.824;6.306;2023-01-26T12:20:41;6.80;;;3.40;;
73454;SDS011;61690;51.824;6.306;2023-01-26T12:23:24;6.10;;;3.30;;
73454;SDS011;61690;51.824;6.306;2023-01-26T12:26:09;6.07;;;3.28;;
73454;SDS011;61690;51.824;6.306;2023-01-26T12:28:43;5.93;;;3.33;;
73454;SDS011;61690;51.824;6.306;2023-01-26T12:33:39;6.20;;;3.17;;
73454;SDS011;61690;51.824;6.306;2023-01-26T12:44:41;5.80;;;2.97;;
73454;SDS011;61690;51.824;6.306;2023-01-26T12:50:34;6.07;;;3.22;;
73454;SDS011;61690;51.824;6.306;2023-01-26T12:52:44;6.80;;;3.20;;
73454;SDS011;61690;51.824;6.306;2023-01-26T12:58:01;5.68;;;3.00;;
73454;SDS011;61690;51.824;6.306;2023-01-26T13:00:31;5.95;;;3.38;;
73454;SDS011;61690;51.824;6.306;2023-01-26T13:03:00;5.85;;;3.30;;
73454;SDS011;61690;51.824;6.306;2023-01-26T13:05:53;6.20;;;3.38;;
73454;SDS011;61690;51.824;6.306;2023-01-26T13:10:54;6.32;;;3.20;;
73454;SDS011;61690;51.824;6.306;2023-01-26T13:21:24;6.20;;;3.27;;
73454;SDS011;61690;51.824;6.306;2023-01-26T13:26:52;6.38;;;3.10;;
73454;SDS011;61690;51.824;6.306;2023-01-26T13:31:52;5.75;;;3.08;;
73454;SDS011;61690;51.824;6.306;2023-01-26T13:34:28;5.90;;;2.90;;
73454;SDS011;61690;51.824;6.306;2023-01-26T13:37:02;6.20;;;2.90;;
73454;SDS011;61690;51.824;6.306;2023-01-26T13:39:37;5.80;;;3.08;;
73454;SDS011;61690;51.824;6.306;2023-01-26T13:42:15;5.88;;;3.17;;
73454;SDS011;61690;51.824;6.306;2023-01-26T13:44:46;6.00;;;3.10;;
73454;SDS011;61690;51.824;6.306;2023-01-26T13:47:20;6.40;;;3.23;;
73454;SDS011;61690;51.824;6.306;2023-01-26T13:49:50;5.85;;;3.08;;
73454;SDS011;61690;51.824;6.306;2023-01-26T13:52:16;6.07;;;3.03;;
73454;SDS011;61690;51.824;6.306;2023-01-26T13:54:45;6.07;;;3.10;;
73454;SDS011;61690;51.824;6.306;2023-01-26T13:57:19;5.97;;;3.10;;
73454;SDS011;61690;51.824;6.306;2023-01-26T13:59:49;6.07;;;2.97;;
73454;SDS011;61690;51.824;6.306;2023-01-26T14:02:21;5.70;;;2.97;;
73454;SDS011;61690;51.824;6.306;2023-01-26T14:04:52;6.30;;;2.93;;
73454;SDS011;61690;51.824;6.306;2023-01-26T14:07:42;6.00;;;2.97;;
73454;SDS011;61690;51.824;6.306;2023-01-26T14:10:14;5.78;;;2.60;;
73454;SDS011;61690;51.824;6.306;2023-01-26T14:12:43;5.80;;;3.03;;
73454;SDS011;61690;51.824;6.306;2023-01-26T14:15:24;5.90;;;2.90;;
73454;SDS011;61690;51.824;6.306;2023-01-26T14:17:59;5.87;;;2.80;;
73454;SDS011;61690;51.824;6.306;2023-01-26T14:20:34;6.40;;;2.90;;
73454;SDS011;61690;51.824;6.306;2023-01-26T14:25:34;6.20;;;3.30;;
73454;SDS011;61690;51.824;6.306;2023-01-26T14:28:00;5.65;;;2.78;;
73454;SDS011;61690;51.824;6.306;2023-01-26T14:30:28;5.80;;;2.83;;
73454;SDS011;61690;51.824;6.306;2023-01-26T14:32:59;6.00;;;3.00;;
73454;SDS011;61690;51.824;6.306;2023-01-26T14:35:26;6.00;;;3.05;;
73454;SDS011;61690;51.824;6.306;2023-01-26T14:38:03;5.53;;;2.70;;
73454;SDS011;61690;51.824;6.306;2023-01-26T14:40:30;5.75;;;3.05;;
73454;SDS011;61690;51.824;6.306;2023-01-26T14:42:55;5.90;;;3.00;;
73454;SDS011;61690;51.824;6.306;2023-01-26T14:45:31;5.60;;;2.97;;
73454;SDS011;61690;51.824;6.306;2023-01-26T14:48:01;5.93;;;2.75;;
73454;SDS011;61690;51.824;6.306;2023-01-26T14:50:31;7.47;;;3.10;;
73454;SDS011;61690;51.824;6.306;2023-01-26T14:52:57;5.37;;;2.87;;
73454;SDS011;61690;51.824;6.306;2023-01-26T14:55:28;6.10;;;2.92;;
73454;SDS011;61690;51.824;6.306;2023-01-26T14:57:57;5.35;;;2.80;;
73454;SDS011;61690;51.824;6.306;2023-01-26T15:00:34;5.90;;;3.08;;
73454;SDS011;61690;51.824;6.306;2023-01-26T15:03:11;5.60;;;2.88;;
73454;SDS011;61690;51.824;6.306;2023-01-26T15:05:46;6.03;;;2.90;;
73454;SDS011;61690;51.824;6.306;2023-01-26T15:08:20;6.10;;;2.70;;
73454;SDS011;61690;51.824;6.306;2023-01-26T15:11:00;5.65;;;2.95;;
73454;SDS011;61690;51.824;6.306;2023-01-26T15:13:46;5.15;;;2.65;;
73454;SDS011;61690;51.824;6.306;2023-01-26T15:16:23;5.57;;;2.83;;
73454;SDS011;61690;51.824;6.306;2023-01-26T15:21:34;6.45;;;2.72;;
73454;SDS011;61690;51.824;6.306;2023-01-26T15:24:04;6.38;;;3.05;;
73454;SDS011;61690;51.824;6.306;2023-01-26T15:26:33;5.60;;;2.60;;
73454;SDS011;61690;51.824;6.306;2023-01-26T15:29:02;5.93;;;2.72;;
73454;SDS011;61690;51.824;6.306;2023-01-26T15:31:33;5.33;;;2.70;;
73454;SDS011;61690;51.824;6.306;2023-01-26T15:34:01;6.13;;;3.00;;
73454;SDS011;61690;51.824;6.306;2023-01-26T15:36:29;7.85;;;3.10;;
73454;SDS011;61690;51.824;6.306;2023-01-26T15:42:29;6.30;;;3.10;;
73454;SDS011;61690;51.824;6.306;2023-01-26T15:44:39;5.97;;;2.50;;
73454;SDS011;61690;51.824;6.306;2023-01-26T15:47:09;5.57;;;2.60;;
73454;SDS011;61690;51.824;6.306;2023-01-26T15:49:36;5.78;;;2.70;;
73454;SDS011;61690;51.824;6.306;2023-01-26T15:52:02;6.78;;;2.90;;
73454;SDS011;61690;51.824;6.306;2023-01-26T15:54:28;7.20;;;2.80;;
73454;SDS011;61690;51.824;6.306;2023-01-26T15:56:53;5.85;;;2.40;;
73454;SDS011;61690;51.824;6.306;2023-01-26T15:59:19;6.10;;;2.50;;
73454;SDS011;61690;51.824;6.306;2023-01-26T16:01:44;6.17;;;2.50;;
73454;SDS011;61690;51.824;6.306;2023-01-26T16:04:12;5.57;;;2.70;;
73454;SDS011;61690;51.824;6.306;2023-01-26T16:06:37;6.00;;;2.58;;
73454;SDS011;61690;51.824;6.306;2023-01-26T16:09:03;6.10;;;2.50;;
73454;SDS011;61690;51.824;6.306;2023-01-26T16:11:29;6.93;;;2.73;;
73454;SDS011;61690;51.824;6.306;2023-01-26T16:13:57;7.93;;;4.05;;
73454;SDS011;61690;51.824;6.306;2023-01-26T16:16:22;5.83;;;2.60;;
73454;SDS011;61690;51.824;6.306;2023-01-26T16:18:52;10.63;;;2.60;;